Time;durP1;ratioP1;P1;durP2;ratioP2;P2;SDS_P1;SDS_P2;PMS_P1;PMS_P2;Temp;Humidity;BMP_temperature;BMP_pressure;BME280_temperature;BME280_humidity;BME280_pressure;Samples;Min_cycle;Max_cycle;Signal;HPM_P1;HPM_P2
2022/08/10 00:00:55;;;;;;;8.82;5.00;;;;;;;26.46;46.52;101412.28;4929913;29;20146;-86
2022/08/10 00:03:22;;;;;;;7.00;5.43;;;;;;;26.33;46.89;101407.75;4929368;29;20064;-85
2022/08/10 00:05:49;;;;;;;7.07;5.53;;;;;;;26.58;47.04;101454.09;4929780;29;21097;-85
2022/08/10 00:08:19;;;;;;;6.15;4.93;;;;;;;26.50;47.18;101454.31;4931333;29;20120;-85
2022/08/10 00:10:54;;;;;;;7.07;5.22;;;;;;;26.81;47.26;101524.28;4945391;29;20524;-85
2022/08/10 00:13:23;;;;;;;6.68;5.35;;;;;;;26.68;47.30;101508.06;4930108;29;20115;-84
2022/08/10 00:15:51;;;;;;;16.60;5.55;;;;;;;26.02;47.26;101400.44;4945859;29;20454;-84
2022/08/10 00:18:25;;;;;;;6.80;4.90;;;;;;;26.45;47.48;101473.22;4945568;29;20047;-87
2022/08/10 00:21:06;;;;;;;7.50;5.35;;;;;;;26.75;47.71;101516.16;4912665;29;20127;-86
2022/08/10 00:23:33;;;;;;;7.47;5.80;;;;;;;25.80;47.50;101367.28;4930217;29;20757;-85
2022/08/10 00:26:00;;;;;;;7.72;6.05;;;;;;;26.37;47.60;101446.28;4930068;29;20410;-85
2022/08/10 00:28:27;;;;;;;6.03;5.50;;;;;;;26.77;47.19;101500.44;4930562;29;20100;-86
2022/08/10 00:30:54;;;;;;;8.68;6.28;;;;;;;26.82;47.39;101514.22;4915879;29;20510;-85
2022/08/10 00:33:21;;;;;;;7.72;5.97;;;;;;;26.92;47.23;101522.75;4930324;29;20283;-85
2022/08/10 00:35:47;;;;;;;6.40;5.75;;;;;;;26.88;47.26;101524.25;4930635;29;20084;-85
2022/08/10 00:38:14;;;;;;;7.88;5.68;;;;;;;26.76;47.48;101524.13;4915373;29;20455;-85
2022/08/10 00:40:41;;;;;;;8.10;5.90;;;;;;;26.85;47.32;101541.03;4930302;29;20605;-86
2022/08/10 00:43:08;;;;;;;8.70;5.72;;;;;;;26.82;47.31;101525.97;4930282;29;20414;-85
2022/08/10 00:45:35;;;;;;;7.30;6.45;;;;;;;26.85;47.15;101532.88;4929813;29;20111;-85
2022/08/10 00:48:02;;;;;;;6.05;5.53;;;;;;;26.48;47.22;101483.66;4929791;29;20460;-86
2022/08/10 00:50:29;;;;;;;6.22;5.63;;;;;;;26.75;47.46;101532.50;4930493;29;20063;-87
2022/08/10 00:52:56;;;;;;;6.20;5.43;;;;;;;26.59;47.75;101529.28;4930816;29;20048;-85
2022/08/10 00:55:23;;;;;;;6.22;4.93;;;;;;;26.53;47.88;101526.56;4930460;29;20059;-85
2022/08/10 00:57:50;;;;;;;6.18;5.57;;;;;;;26.08;47.99;101466.78;4929467;29;20103;-86
2022/08/10 01:00:23;;;;;;;6.95;5.78;;;;;;;26.35;48.19;101510.97;4929022;29;20059;-86
2022/08/10 01:02:50;;;;;;;6.40;5.80;;;;;;;26.14;47.99;101472.19;4929472;29;20107;-85
2022/08/10 01:05:19;;;;;;;6.82;5.97;;;;;;;26.53;48.13;101530.16;4929636;29;20071;-85
2022/08/10 01:07:49;;;;;;;6.05;5.30;;;;;;;26.57;47.75;101531.38;4916454;29;20056;-84
2022/08/10 01:11:13;;;;;;;6.20;5.60;;;;;;;26.58;47.90;101518.59;4930322;29;20052;-84
2022/08/10 01:14:16;;;;;;;7.07;6.13;;;;;;;26.61;47.80;101527.16;4912067;29;20107;-86
2022/08/10 01:16:56;;;;;;;8.27;6.05;;;;;;;26.48;47.51;101510.88;4912105;29;20151;-85
2022/08/10 01:19:48;;;;;;;7.15;5.10;;;;;;;26.53;48.20;101529.28;4933213;29;20134;-85
2022/08/10 01:22:33;;;;;;;6.97;5.68;;;;;;;26.47;48.49;101527.44;4948354;29;20114;-88
2022/08/10 01:25:22;;;;;;;8.18;5.88;;;;;;;26.32;48.21;101512.25;4932518;29;20071;-85
2022/08/10 01:28:12;;;;;;;7.13;5.57;;;;;;;26.30;48.61;101516.25;4947764;29;20051;-84
2022/08/10 01:30:41;;;;;;;6.90;5.45;;;;;;;26.01;48.51;101483.13;4933605;29;20091;-85
2022/08/10 01:33:17;;;;;;;7.47;5.70;;;;;;;25.82;48.60;101470.44;4947170;28;20051;-84
2022/08/10 01:36:18;;;;;;;8.05;5.43;;;;;;;26.28;48.72;101537.41;4946582;29;20062;-87
2022/08/10 01:39:00;;;;;;;7.15;5.95;;;;;;;26.25;48.62;101538.69;4946715;29;20059;-85
2022/08/10 01:41:53;;;;;;;8.52;5.35;;;;;;;26.13;49.05;101500.44;4948610;29;20043;-87
2022/08/10 01:44:28;;;;;;;8.10;5.83;;;;;;;26.31;49.00;101531.50;4947899;29;20051;-84
2022/08/10 01:48:27;;;;;;;7.30;5.90;;;;;;;26.30;49.11;101529.84;4948164;29;20403;-84
2022/08/10 01:49:54;;;;;;;9.30;5.78;;;;;;;26.01;49.22;101499.44;4934468;29;20119;-85
2022/08/10 01:52:25;;;;;;;7.57;5.82;;;;;;;25.98;49.16;101483.56;4957565;29;20122;-85
2022/08/10 01:54:54;;;;;;;6.55;5.93;;;;;;;25.51;49.13;101423.94;4962180;29;20580;-85
2022/08/10 01:57:24;;;;;;;10.38;6.07;;;;;;;26.04;49.48;101509.88;4937077;29;20052;-85
2022/08/10 01:59:53;;;;;;;8.10;5.78;;;;;;;24.94;49.14;101336.72;4947648;29;20047;-86
2022/08/10 02:02:30;;;;;;;13.02;6.15;;;;;;;24.88;49.29;101320.44;4931488;29;20097;-84
2022/08/10 02:05:01;;;;;;;8.10;6.22;;;;;;;25.56;49.39;101437.72;4947326;29;20257;-84
2022/08/10 02:07:30;;;;;;;6.15;5.47;;;;;;;25.92;49.01;101489.88;4947540;29;20055;-85
2022/08/10 02:10:02;;;;;;;9.60;5.50;;;;;;;26.00;48.91;101497.78;4932830;29;20063;-85
2022/08/10 02:12:32;;;;;;;9.10;5.93;;;;;;;25.07;49.00;101351.31;4947371;29;20115;-84
2022/08/10 02:15:06;;;;;;;6.72;5.93;;;;;;;25.73;49.06;101467.97;4947663;29;20047;-84
2022/08/10 02:17:37;;;;;;;6.63;6.03;;;;;;;24.69;49.09;101312.16;4931480;29;20048;-85
2022/08/10 02:20:27;;;;;;;8.30;5.63;;;;;;;25.22;49.44;101403.56;4931879;29;20052;-85
2022/08/10 02:23:08;;;;;;;7.68;5.38;;;;;;;24.96;49.29;101355.53;4931318;29;20059;-86
2022/08/10 02:25:36;;;;;;;10.18;6.05;;;;;;;25.41;49.36;101441.72;4931869;29;20048;-84
2022/08/10 02:28:10;;;;;;;6.53;5.68;;;;;;;25.11;49.34;101396.84;4946166;28;20480;-85
2022/08/10 02:30:56;;;;;;;6.63;5.95;;;;;;;25.32;49.32;101424.84;4931824;29;20070;-86
2022/08/10 02:33:25;;;;;;;8.48;6.00;;;;;;;24.41;49.12;101281.69;4931080;29;20104;-85
2022/08/10 02:35:54;;;;;;;9.02;6.55;;;;;;;24.27;49.31;101256.47;4932495;29;20056;-85
2022/08/10 02:38:31;;;;;;;7.70;6.25;;;;;;;24.76;50.06;101339.31;4931067;29;20524;-86
2022/08/10 02:41:24;;;;;;;8.32;6.75;;;;;;;24.65;49.68;101304.66;4931771;29;20083;-85
2022/08/10 02:44:38;;;;;;;6.65;5.70;;;;;;;25.27;50.02;101411.91;4931853;29;20502;-86
2022/08/10 02:47:31;;;;;;;8.52;6.00;;;;;;;25.29;49.95;101428.84;4931939;29;20047;-85
2022/08/10 02:50:20;;;;;;;8.65;6.15;;;;;;;25.89;50.05;101506.63;4944341;29;20147;-85
2022/08/10 02:52:53;;;;;;;7.25;6.53;;;;;;;25.41;49.70;101422.72;4947004;29;20079;-86
2022/08/10 02:55:31;;;;;;;8.93;5.80;;;;;;;24.90;49.94;101353.66;4946816;29;20059;-86
2022/08/10 02:58:05;;;;;;;10.93;6.20;;;;;;;25.32;49.94;101414.81;4946954;29;20051;-84
2022/08/10 03:00:47;;;;;;;8.43;5.55;;;;;;;24.72;49.65;101327.19;4930587;29;20454;-85
2022/08/10 03:03:24;;;;;;;9.40;5.28;;;;;;;25.02;49.95;101370.97;4946050;29;20068;-85
2022/08/10 03:05:58;;;;;;;6.70;5.88;;;;;;;24.53;49.72;101308.00;4930529;29;20505;-85
2022/08/10 03:08:29;;;;;;;6.28;5.53;;;;;;;24.40;49.65;101285.47;4946240;29;20071;-84
2022/08/10 03:11:00;;;;;;;7.78;5.70;;;;;;;25.67;49.75;101498.72;4930621;29;20109;-85
2022/08/10 03:13:28;;;;;;;7.30;6.13;;;;;;;24.98;49.86;101398.75;4946417;29;20463;-84
2022/08/10 03:15:55;;;;;;;9.52;5.68;;;;;;;25.05;49.80;101408.59;4946541;29;20542;-86
2022/08/10 03:18:23;;;;;;;9.77;5.55;;;;;;;24.43;49.89;101301.31;4946283;29;20111;-85
2022/08/10 03:20:51;;;;;;;7.93;5.40;;;;;;;24.35;50.22;101288.81;4911834;29;20099;-85
2022/08/10 03:23:22;;;;;;;9.98;5.82;;;;;;;25.45;50.44;101495.44;4927159;29;20056;-84
2022/08/10 03:25:51;;;;;;;5.88;5.28;;;;;;;25.27;50.42;101455.38;4927438;29;20051;-86
2022/08/10 03:28:28;;;;;;;;;;;;;;;25.44;50.84;101506.53;4927168;29;20423;-84
2022/08/10 03:30:56;;;;;;;8.35;6.28;;;;;;;24.87;50.75;101417.38;4927558;29;19923;-84
2022/08/10 03:33:28;;;;;;;7.25;6.53;;;;;;;23.77;50.60;101243.38;4931582;29;20398;-85
2022/08/10 03:35:54;;;;;;;6.43;5.40;;;;;;;24.78;50.95;101418.66;4946421;29;20118;-84
2022/08/10 03:38:44;;;;;;;8.77;6.22;;;;;;;24.14;51.26;101297.19;4943455;29;20055;-84
2022/08/10 03:41:14;;;;;;;8.20;6.28;;;;;;;24.83;50.93;101394.44;4929736;29;20762;-85
2022/08/10 03:43:46;;;;;;;12.17;7.17;;;;;;;24.94;51.21;101423.63;4931344;29;20545;-87
2022/08/10 03:46:17;;;;;;;10.95;7.43;;;;;;;25.34;51.22;101505.13;4930581;29;20056;-84
2022/08/10 03:48:44;;;;;;;9.85;6.90;;;;;;;25.04;51.71;101476.69;4931602;29;20102;-83
2022/08/10 03:51:17;;;;;;;9.27;6.28;;;;;;;24.64;51.72;101414.28;4950776;29;20115;-84
2022/08/10 03:53:45;;;;;;;11.05;7.22;;;;;;;24.74;51.79;101439.13;4956757;29;20494;-85
2022/08/10 03:56:30;;;;;;;8.02;7.13;;;;;;;24.20;51.77;101364.16;4953787;28;20079;-85
2022/08/10 03:59:00;;;;;;;9.85;7.13;;;;;;;24.03;52.00;101339.31;4932464;29;20059;-84
2022/08/10 04:01:28;;;;;;;8.60;7.15;;;;;;;24.93;52.25;101508.88;4929945;29;20203;-86
2022/08/10 04:04:14;;;;;;;7.50;6.68;;;;;;;24.66;52.19;101470.06;4931273;29;20055;-85
2022/08/10 04:06:50;;;;;;;10.23;6.78;;;;;;;24.80;52.40;101508.88;4945567;29;20071;-85
2022/08/10 04:09:22;;;;;;;7.18;6.47;;;;;;;24.80;52.64;101514.31;4945682;29;20066;-85
2022/08/10 04:11:48;;;;;;;12.18;7.57;;;;;;;24.77;52.55;101508.47;4945915;29;20351;-84
2022/08/10 04:14:15;;;;;;;9.50;6.70;;;;;;;24.74;52.27;101526.84;4946905;29;20304;-85
2022/08/10 04:17:02;;;;;;;6.90;6.20;;;;;;;24.89;52.26;101529.34;4943442;29;20052;-85
2022/08/10 04:19:39;;;;;;;7.60;5.82;;;;;;;24.94;51.94;101548.56;4941970;29;20052;-83
2022/08/10 04:22:14;;;;;;;9.40;6.15;;;;;;;24.91;51.68;101543.56;4925972;29;20059;-84
2022/08/10 04:24:43;;;;;;;8.00;6.30;;;;;;;24.88;51.78;101533.13;4926486;29;20055;-86
2022/08/10 04:27:10;;;;;;;7.90;6.45;;;;;;;24.82;51.79;101533.94;4911295;29;20562;-84
2022/08/10 04:29:38;;;;;;;6.57;5.97;;;;;;;23.75;52.10;101353.06;4911872;29;20369;-85
2022/08/10 04:32:14;;;;;;;7.25;6.43;;;;;;;24.19;52.55;101430.31;4911869;29;20055;-84
2022/08/10 04:34:44;;;;;;;10.13;6.13;;;;;;;24.69;52.35;101523.94;4929304;29;20048;-86
2022/08/10 04:37:12;;;;;;;10.75;5.95;;;;;;;24.06;52.62;101426.53;4945877;29;20068;-85
2022/08/10 04:39:39;;;;;;;6.85;6.00;;;;;;;23.87;52.11;101398.31;4945512;29;20051;-86
2022/08/10 04:42:06;;;;;;;7.82;6.22;;;;;;;24.72;52.06;101536.25;4930544;29;20059;-85
2022/08/10 04:44:33;;;;;;;7.38;5.90;;;;;;;24.73;52.00;101535.19;4945388;29;20147;-86
2022/08/10 04:47:00;;;;;;;7.88;6.45;;;;;;;24.34;52.19;101460.78;4945807;29;20051;-84
2022/08/10 04:49:27;;;;;;;6.80;6.00;;;;;;;23.95;52.12;101386.44;4929459;29;20058;-86
2022/08/10 04:52:14;;;;;;;6.18;5.18;;;;;;;24.29;52.00;101453.25;4942958;29;20058;-84
2022/08/10 04:54:41;;;;;;;12.20;6.63;;;;;;;25.00;51.78;101565.06;4934306;29;20124;-85
2022/08/10 04:57:07;;;;;;;7.55;5.93;;;;;;;24.60;51.92;101499.91;4929634;29;20060;-84
2022/08/10 04:59:34;;;;;;;6.68;5.72;;;;;;;24.59;51.33;101476.50;4945288;29;20054;-85
2022/08/10 05:02:03;;;;;;;6.32;5.72;;;;;;;24.25;51.97;101434.91;4929057;29;20116;-84
2022/08/10 05:04:50;;;;;;;7.22;6.53;;;;;;;25.12;51.69;101583.28;4930938;29;20087;-84
2022/08/10 05:07:17;;;;;;;8.80;6.70;;;;;;;25.20;51.40;101562.41;4946925;28;20058;-85
2022/08/10 05:09:47;;;;;;;12.52;8.50;;;;;;;24.64;51.21;101479.44;4934330;29;20052;-84
2022/08/10 05:12:35;;;;;;;9.88;7.63;;;;;;;25.20;51.35;101592.31;4946689;28;20470;-84
2022/08/10 05:15:14;;;;;;;12.95;7.40;;;;;;;25.13;51.60;101578.69;4948625;29;20047;-86
2022/08/10 05:17:41;;;;;;;18.02;7.43;;;;;;;24.21;51.55;101433.66;4933322;29;20059;-85
2022/08/10 05:20:28;;;;;;;17.08;7.60;;;;;;;24.93;51.59;101556.94;4945998;28;20154;-85
2022/08/10 05:22:55;;;;;;;9.07;7.57;;;;;;;24.66;51.78;101507.19;4948561;29;20055;-85
2022/08/10 05:25:22;;;;;;;9.02;6.85;;;;;;;24.86;52.07;101535.22;4951505;29;20059;-86
2022/08/10 05:27:48;;;;;;;6.55;5.55;;;;;;;23.96;51.58;101388.13;4945132;29;20044;-86
2022/08/10 05:30:20;;;;;;;10.27;6.88;;;;;;;24.04;51.24;101389.81;4957594;29;20067;-88
2022/08/10 05:32:47;;;;;;;6.53;5.78;;;;;;;25.26;50.85;101577.84;4966730;28;20114;-85
2022/08/10 05:35:27;;;;;;;12.82;6.30;;;;;;;24.92;50.26;101512.63;4947975;28;20186;-84
2022/08/10 05:38:06;;;;;;;7.05;6.20;;;;;;;24.42;50.24;101414.47;4947443;29;20066;-85
2022/08/10 05:40:42;;;;;;;7.20;5.93;;;;;;;25.29;49.99;101542.97;4932440;29;20364;-84
2022/08/10 05:43:15;;;;;;;7.35;6.35;;;;;;;24.93;49.39;101461.91;4933840;29;20212;-85
2022/08/10 05:45:42;;;;;;;7.43;6.13;;;;;;;25.61;49.00;101570.28;4931919;29;20054;-83
2022/08/10 05:48:29;;;;;;;6.28;5.68;;;;;;;24.84;48.83;101438.72;4933675;29;20048;-85
2022/08/10 05:51:17;;;;;;;12.63;6.78;;;;;;;24.69;48.44;101403.63;4932832;29;20107;-84
2022/08/10 05:53:46;;;;;;;6.97;6.35;;;;;;;25.76;48.54;101564.59;4937860;29;20086;-85
2022/08/10 05:56:30;;;;;;;6.75;6.05;;;;;;;24.65;48.18;101372.53;4925003;29;20091;-86
2022/08/10 05:59:18;;;;;;;9.82;6.50;;;;;;;25.03;48.27;101428.88;4918693;29;20079;-84
2022/08/10 06:02:06;;;;;;;9.77;6.78;;;;;;;25.82;48.16;101557.47;4932454;29;20111;-84
2022/08/10 06:04:56;;;;;;;10.00;6.43;;;;;;;26.03;48.00;101573.53;4944834;29;20096;-84
2022/08/10 06:07:26;;;;;;;9.70;6.30;;;;;;;25.55;47.77;101489.56;4945884;29;20115;-84
2022/08/10 06:09:55;;;;;;;8.40;7.15;;;;;;;25.32;47.97;101435.72;4945785;29;20059;-83
2022/08/10 06:12:27;;;;;;;8.77;6.13;;;;;;;26.12;47.79;101572.25;4928818;29;20430;-84
2022/08/10 06:15:01;;;;;;;9.90;6.72;;;;;;;24.95;48.03;101379.16;4946085;29;20055;-84
2022/08/10 06:17:31;;;;;;;7.63;6.40;;;;;;;25.35;48.00;101427.13;4931389;29;20064;-85
2022/08/10 06:20:00;;;;;;;7.57;6.45;;;;;;;25.57;47.91;101471.16;4926136;29;20047;-83
2022/08/10 06:22:31;;;;;;;7.60;6.80;;;;;;;26.26;47.66;101564.81;4927710;29;20584;-84
2022/08/10 06:25:01;;;;;;;11.15;6.53;;;;;;;24.98;47.66;101347.16;4945618;29;20059;-84
2022/08/10 06:27:49;;;;;;;8.65;6.78;;;;;;;25.72;47.61;101439.09;4943336;28;20055;-86
2022/08/10 06:30:16;;;;;;;7.40;6.40;;;;;;;25.99;47.65;101479.78;4945531;29;20102;-85
2022/08/10 06:32:48;;;;;;;11.55;6.93;;;;;;;26.18;47.94;101503.31;4931063;29;20095;-84
2022/08/10 06:35:16;;;;;;;7.75;6.60;;;;;;;25.80;47.46;101438.00;4910973;29;20054;-85
2022/08/10 06:37:43;;;;;;;7.93;7.13;;;;;;;26.09;47.50;101477.41;4926819;29;20052;-84
2022/08/10 06:40:18;;;;;;;8.15;7.38;;;;;;;26.69;47.38;101564.19;4925248;29;20523;-84
2022/08/10 06:42:47;;;;;;;12.02;7.05;;;;;;;25.78;46.97;101402.88;4925958;29;20052;-84
2022/08/10 06:45:28;;;;;;;8.48;7.70;;;;;;;26.93;46.33;101561.72;4925627;29;20058;-84
2022/08/10 06:48:02;;;;;;;7.80;7.05;;;;;;;26.79;46.36;101533.72;4912302;29;20095;-83
2022/08/10 06:50:37;;;;;;;8.63;7.57;;;;;;;26.40;46.13;101464.88;4926387;29;20060;-85
2022/08/10 06:53:30;;;;;;;9.55;7.10;;;;;;;26.80;46.63;101535.41;4924126;29;20111;-85
2022/08/10 06:56:25;;;;;;;8.25;7.25;;;;;;;26.31;46.35;101441.69;4924007;29;20044;-85
2022/08/10 06:59:19;;;;;;;10.25;6.90;;;;;;;27.01;46.83;101578.59;4925000;29;20558;-85
2022/08/10 07:02:02;;;;;;;9.80;6.45;;;;;;;25.98;47.05;101407.41;4927436;29;20522;-86
2022/08/10 07:04:32;;;;;;;;;;;;;;;27.05;47.36;101577.13;4928524;29;20050;-85
2022/08/10 07:07:04;;;;;;;13.60;6.43;;;;;;;26.70;46.60;101505.09;4927688;29;19923;-86
2022/08/10 07:09:35;;;;;;;7.43;6.60;;;;;;;26.37;46.51;101443.56;4927474;29;20060;-87
2022/08/10 07:12:04;;;;;;;11.27;6.20;;;;;;;27.21;46.66;101586.66;4927535;29;20131;-85
2022/08/10 07:14:41;;;;;;;11.20;6.68;;;;;;;25.99;46.58;101376.41;4927229;29;20056;-83
2022/08/10 07:17:29;;;;;;;7.28;6.57;;;;;;;27.08;46.91;101554.84;4927199;29;20052;-85
2022/08/10 07:20:00;;;;;;;8.90;6.85;;;;;;;26.79;46.74;101506.50;4935839;29;20060;-85
2022/08/10 07:22:30;;;;;;;;;;;;;;;27.34;46.61;101580.25;4913191;29;20529;-85
2022/08/10 07:25:21;;;;;;;11.13;6.18;;;;;;;26.33;46.61;101420.53;4925816;29;19926;-85
2022/08/10 07:27:48;;;;;;;9.63;6.80;;;;;;;26.85;46.78;101511.06;4928265;29;20071;-86
2022/08/10 07:30:38;;;;;;;6.15;5.55;;;;;;;26.90;46.62;101508.50;4924918;29;20056;-86
2022/08/10 07:33:10;;;;;;;6.45;5.50;;;;;;;26.91;46.69;101484.81;4929681;29;20059;-87
2022/08/10 07:35:40;;;;;;;14.48;6.40;;;;;;;27.04;46.44;101507.34;4931172;29;20059;-85
2022/08/10 07:38:19;;;;;;;10.38;5.97;;;;;;;27.59;46.74;101576.66;4932451;29;20585;-85
2022/08/10 07:40:48;;;;;;;9.93;6.18;;;;;;;26.94;46.21;101452.50;4931409;28;20399;-85
2022/08/10 07:43:17;;;;;;;9.05;5.35;;;;;;;26.66;46.35;101416.75;4929740;29;20113;-85
2022/08/10 07:45:47;;;;;;;10.00;5.55;;;;;;;26.50;45.84;101375.38;4946106;29;20048;-85
2022/08/10 07:48:17;;;;;;;8.23;5.88;;;;;;;27.67;46.33;101574.47;4929959;29;20288;-86
2022/08/10 07:50:45;;;;;;;7.43;5.43;;;;;;;27.04;45.75;101461.00;4930271;29;20047;-85
2022/08/10 07:53:19;;;;;;;8.70;5.50;;;;;;;27.64;45.81;101554.97;4931389;29;20438;-85
2022/08/10 07:55:48;;;;;;;6.25;5.30;;;;;;;27.57;45.54;101492.31;4937578;29;20060;-87
2022/08/10 07:58:39;;;;;;;9.77;6.22;;;;;;;27.93;45.89;101561.59;4951574;29;20071;-86
2022/08/10 08:01:22;;;;;;;14.23;6.53;;;;;;;27.58;45.82;101504.09;4931941;29;20052;-85
2022/08/10 08:03:51;;;;;;;11.90;5.95;;;;;;;26.82;45.65;101375.28;4945547;29;20134;-85
2022/08/10 08:06:38;;;;;;;10.75;6.13;;;;;;;26.79;45.35;101370.31;4943514;29;20055;-87
2022/08/10 08:09:05;;;;;;;8.52;6.00;;;;;;;26.96;45.59;101411.41;4945321;29;20442;-85
2022/08/10 08:11:32;;;;;;;12.07;5.68;;;;;;;27.98;46.17;101577.28;4945907;29;20118;-86
2022/08/10 08:14:00;;;;;;;10.05;6.45;;;;;;;26.81;46.07;101373.66;4945642;29;20063;-85
2022/08/10 08:16:28;;;;;;;7.40;6.00;;;;;;;27.67;45.72;101491.78;4945913;29;20059;-86
2022/08/10 08:18:56;;;;;;;10.02;5.95;;;;;;;27.64;45.93;101484.06;4927063;29;20048;-85
2022/08/10 08:21:43;;;;;;;11.88;6.43;;;;;;;27.97;45.52;101518.31;4912020;29;20051;-85
2022/08/10 08:24:33;;;;;;;8.52;6.28;;;;;;;27.91;45.42;101485.44;4926483;29;20355;-84
2022/08/10 08:27:04;;;;;;;17.15;6.82;;;;;;;27.57;45.38;101421.41;4933019;29;20055;-86
2022/08/10 08:29:35;;;;;;;;;;;;;;;28.53;45.57;101560.81;4946662;28;20043;-85
2022/08/10 08:32:04;;;;;;;7.93;6.68;;;;;;;27.61;45.27;101398.09;4928929;29;19930;-85
2022/08/10 08:34:36;;;;;;;10.10;6.40;;;;;;;28.20;45.00;101491.09;4946000;29;20074;-85
2022/08/10 08:37:04;;;;;;;10.15;6.47;;;;;;;27.61;44.68;101372.72;4936016;29;20085;-85
2022/08/10 08:39:32;;;;;;;7.93;7.13;;;;;;;28.81;44.67;101562.06;4929680;29;20143;-84
2022/08/10 08:42:23;;;;;;;9.27;6.00;;;;;;;28.97;44.05;101566.84;4930473;29;20171;-85
2022/08/10 08:44:56;;;;;;;7.93;6.25;;;;;;;29.03;43.60;101563.19;4933635;29;20070;-86
2022/08/10 08:47:31;;;;;;;9.70;5.68;;;;;;;28.74;43.42;101513.84;4948463;29;20051;-84
2022/08/10 08:50:35;;;;;;;6.45;5.50;;;;;;;28.57;43.55;101492.88;4946293;28;20067;-85
2022/08/10 08:53:29;;;;;;;8.38;5.18;;;;;;;29.17;42.05;101566.53;4933138;29;20056;-85
2022/08/10 08:56:33;;;;;;;8.77;4.82;;;;;;;29.14;42.01;101556.91;4946195;28;20052;-86
2022/08/10 08:59:09;;;;;;;12.23;5.28;;;;;;;29.25;41.75;101557.13;4948598;28;20103;-85
2022/08/10 09:02:13;;;;;;;6.50;4.65;;;;;;;29.38;40.84;101557.75;4948757;28;20059;-86
2022/08/10 09:05:07;;;;;;;4.95;4.07;;;;;;;28.96;39.27;101472.28;4949384;28;20055;-85
2022/08/10 09:08:15;;;;;;;6.20;4.60;;;;;;;29.63;39.10;101553.06;4949000;28;20085;-85
2022/08/10 09:10:53;;;;;;;6.75;5.13;;;;;;;29.82;39.45;101546.41;4948304;28;20071;-85
2022/08/10 09:13:33;;;;;;;5.50;4.75;;;;;;;29.29;38.96;101454.44;4948585;29;20091;-87
2022/08/10 09:16:24;;;;;;;8.45;5.15;;;;;;;29.18;39.80;101415.94;4948203;29;20051;-85
2022/08/10 09:19:09;;;;;;;11.50;5.03;;;;;;;29.13;39.49;101399.44;4948658;29;20047;-84
2022/08/10 09:22:01;;;;;;;9.25;4.57;;;;;;;30.07;39.28;101523.34;4932387;29;20052;-85
2022/08/10 09:25:03;;;;;;;6.60;4.65;;;;;;;30.24;39.18;101549.72;4946560;29;20134;-86
2022/08/10 09:27:39;;;;;;;9.02;4.45;;;;;;;30.19;39.09;101524.13;4948191;28;20056;-85
2022/08/10 09:30:12;;;;;;;7.60;4.53;;;;;;;29.80;38.95;101455.50;4948018;28;20044;-85
2022/08/10 09:32:52;;;;;;;4.43;3.88;;;;;;;29.18;38.44;101339.38;4932064;29;20147;-85
2022/08/10 09:35:54;;;;;;;7.73;4.50;;;;;;;30.56;37.57;101551.97;4932455;29;20134;-86
2022/08/10 09:38:46;;;;;;;10.20;4.97;;;;;;;30.66;37.20;101541.19;4945889;28;20131;-87
2022/08/10 09:41:40;;;;;;;6.30;4.40;;;;;;;30.86;36.82;101540.72;4947696;29;20063;-86
2022/08/10 09:44:13;;;;;;;6.18;4.40;;;;;;;30.85;37.67;101528.09;4947855;29;20063;-84
2022/08/10 09:47:12;;;;;;;9.75;4.20;;;;;;;30.83;36.95;101519.28;4948158;29;20534;-87
2022/08/10 09:49:48;;;;;;;5.00;4.13;;;;;;;30.45;36.24;101435.88;4948192;28;20067;-85
2022/08/10 09:52:33;;;;;;;4.50;3.90;;;;;;;31.11;35.72;101535.88;4947236;29;20187;-87
2022/08/10 09:55:24;;;;;;;6.10;4.43;;;;;;;31.20;36.24;101529.72;4951398;28;20047;-85
2022/08/10 09:58:36;;;;;;;12.18;4.20;;;;;;;30.37;35.77;101332.22;4942169;28;20043;-86
2022/08/10 10:01:59;;;;;;;12.48;4.20;;;;;;;31.93;34.63;101522.16;4938660;28;20047;-86
2022/08/10 10:04:57;;;;;;;5.45;3.90;;;;;;;31.15;33.60;101358.78;4917972;29;20413;-87
2022/08/10 10:07:28;;;;;;;6.70;3.78;;;;;;;31.82;34.11;101459.16;4947154;29;20583;-85
2022/08/10 10:10:20;;;;;;;6.22;3.85;;;;;;;32.16;33.70;101512.00;4946959;29;20062;-87
2022/08/10 10:12:55;;;;;;;3.88;3.58;;;;;;;31.80;34.08;101436.63;4947309;28;20052;-86
2022/08/10 10:15:44;;;;;;;4.60;3.47;;;;;;;32.48;33.57;101517.56;4947064;29;20090;-87
2022/08/10 10:18:58;;;;;;;6.68;3.65;;;;;;;31.31;33.59;101322.19;4947233;29;20265;-86
2022/08/10 10:21:45;;;;;;;5.85;3.85;;;;;;;32.16;33.64;101432.34;4938421;29;20553;-85
2022/08/10 10:24:27;;;;;;;8.30;3.95;;;;;;;31.75;33.96;101359.72;4946621;29;20062;-87
2022/08/10 10:27:28;;;;;;;5.15;3.60;;;;;;;32.77;33.87;101492.53;4947788;29;20066;-87
2022/08/10 10:30:25;;;;;;;3.95;3.63;;;;;;;31.59;33.84;101296.47;4914099;29;20102;-86
2022/08/10 10:33:15;;;;;;;7.82;3.90;;;;;;;32.08;33.26;101353.19;4928575;29;20486;-87
2022/08/10 10:35:54;;;;;;;5.97;3.88;;;;;;;33.07;33.19;101491.09;4932791;29;20059;-85
2022/08/10 10:38:25;;;;;;;6.93;4.20;;;;;;;32.91;33.17;101410.38;4958139;28;20122;-85
2022/08/10 10:41:12;;;;;;;6.20;3.50;;;;;;;32.56;32.57;101302.72;4949349;29;20562;-85
2022/08/10 10:44:21;;;;;;;9.18;3.83;;;;;;;33.61;32.00;101480.66;4948980;28;20146;-87
2022/08/10 10:47:03;;;;;;;12.35;3.70;;;;;;;32.40;32.23;101278.16;4957142;28;20351;-87
2022/08/10 10:49:36;;;;;;;5.65;3.60;;;;;;;33.87;31.94;101468.91;4949958;29;20059;-86
2022/08/10 10:52:05;;;;;;;13.10;3.58;;;;;;;34.02;31.76;101460.66;4964783;28;20051;-86
2022/08/10 10:54:57;;;;;;;5.90;3.22;;;;;;;34.15;31.10;101471.16;4963843;28;20417;-87
2022/08/10 10:57:32;;;;;;;4.40;3.15;;;;;;;33.18;30.82;101279.06;4950499;28;20043;-87
2022/08/10 11:00:25;;;;;;;4.00;3.45;;;;;;;33.88;30.81;101397.00;4930723;28;20051;-86
2022/08/10 11:03:05;;;;;;;6.18;2.92;;;;;;;33.62;30.39;101328.16;4931398;29;20062;-88
2022/08/10 11:05:43;;;;;;;6.28;2.50;;;;;;;33.96;30.17;101354.31;4946065;28;20058;-87
2022/08/10 11:08:22;;;;;;;4.80;2.60;;;;;;;34.85;29.58;101462.34;4946437;28;20058;-88
2022/08/10 11:11:01;;;;;;;4.60;2.95;;;;;;;34.57;29.29;101398.41;4931510;28;20090;-86
2022/08/10 11:14:10;;;;;;;3.35;2.85;;;;;;;35.09;27.67;101465.31;4946286;28;20051;-86
2022/08/10 11:17:01;;;;;;;6.38;2.53;;;;;;;34.54;27.63;101351.25;4929467;29;20056;-87
2022/08/10 11:20:09;;;;;;;4.75;2.53;;;;;;;34.84;27.52;101468.97;4929673;29;20500;-86
2022/08/10 11:23:06;;;;;;;5.65;2.42;;;;;;;34.31;27.79;101405.88;4932475;29;20399;-86
2022/08/10 11:25:40;;;;;;;3.33;2.70;;;;;;;33.63;28.35;101280.25;4946987;29;20150;-86
2022/08/10 11:28:35;;;;;;;7.28;2.90;;;;;;;34.32;26.91;101368.09;4932226;29;20059;-86
2022/08/10 11:31:20;;;;;;;4.28;2.65;;;;;;;33.84;27.96;101285.78;4930770;29;20139;-87
2022/08/10 11:34:12;;;;;;;6.43;2.15;;;;;;;33.90;27.54;101279.13;4930902;29;20116;-87
2022/08/10 11:37:17;;;;;;;4.57;2.65;;;;;;;33.95;26.29;101264.53;4944080;28;20146;-87
2022/08/10 11:39:56;;;;;;;6.55;2.60;;;;;;;34.18;26.53;101279.69;4931767;28;20131;-88
2022/08/10 11:42:38;;;;;;;4.18;2.40;;;;;;;34.78;26.31;101315.63;4932127;29;20047;-87
2022/08/10 11:45:15;;;;;;;7.70;3.35;;;;;;;34.87;26.63;101291.88;4934163;29;20047;-88
2022/08/10 11:48:14;;;;;;;3.83;2.25;;;;;;;36.13;25.33;101445.25;4973733;28;20058;-89
2022/08/10 11:51:06;;;;;;;4.20;2.70;;;;;;;35.47;25.54;101347.88;4964471;28;20053;-89
2022/08/10 11:53:52;;;;;;;3.90;2.53;;;;;;;35.22;24.73;101295.59;4989831;28;20059;-87
2022/08/10 11:56:53;;;;;;;7.40;2.47;;;;;;;36.26;25.01;101444.56;4989617;28;20119;-88
2022/08/10 12:02:30;;;;;;;7.57;2.67;;;;;;;35.75;25.69;101290.25;4943598;29;20102;-88
2022/08/10 12:05:02;;;;;;;4.65;2.92;;;;;;;35.79;24.71;101269.25;4946503;28;20063;-87
2022/08/10 12:07:31;;;;;;;2.85;2.05;;;;;;;35.71;24.36;101231.22;4945654;28;20044;-86
2022/08/10 12:10:21;;;;;;;6.88;2.38;;;;;;;36.06;24.19;101254.88;4930923;28;20067;-87
2022/08/10 12:13:01;;;;;;;4.72;1.92;;;;;;;37.23;23.99;101434.50;4946046;28;20052;-86
2022/08/10 12:15:40;;;;;;;3.22;2.45;;;;;;;37.06;23.29;101381.56;4946789;29;20118;-86
2022/08/10 12:18:17;;;;;;;4.40;2.20;;;;;;;36.35;23.20;101249.34;4949755;28;20059;-84